Bison, SD (57620)

8:50 AM MDT on July 10, 2014 (GMT -0600)
Hettinger Municipal (KHEI) Elev 2703 ft | 46.01 °N, 102.66 °W | Change Station

Current weather conditions updated 57 minutes ago

Mostly Cloudy
Mostly Cloudy
61 °F
Feels Like 61 °F
N
8
Wind Variable Wind from SE
Gusts 17 mph

Today is forecast to be nearly the same temperature as yesterday.

Today
High -- | Low -- °F
--% Chance of Precip.
Yesterday
High -- | Low -- °F
Precip. -- in
5:11 AM 8:38 PM
Waxing Gibbous, 95% visible
Pressure 29.82 in
Visibility 10.0 miles
Clouds Few 8500 ft
Mostly Cloudy 12000 ft
Dew Point 57 °F
Humidity 87%
Rainfall 0.00 in
Snow Depth Not available.
UV 1 out of 12
Pollen 4.70 out of 12
Air Quality Not available.
Flu Activity Sporadic
METAR KHEI 101353Z AUTO 13007G15KT 10SM FEW085 BKN120 16/14 A2986 RMK AO2 SLP097 T01610139

More Conditions Fewer Conditions

Pressure 29.82 in
Visibility 10.0 miles
Clouds Few 8500 ft
Mostly Cloudy 12000 ft
Dew Point 57 °F
Humidity 87%
Rainfall 0.00 in
Snow Depth Not available.
UV 1 out of 12
Pollen 4.70 out of 12
Air Quality Not available.
Flu Activity Sporadic
METAR KHEI 101353Z AUTO 13007G15KT 10SM FEW085 BKN120 16/14 A2986 RMK AO2 SLP097 T01610139

More Conditions Fewer Conditions

10-Day Weather Forecast

Almanac

Astronomy

Jul. 10, 2014 Rise Set
Actual Time 5:11 AM MDT 8:38 PM MDT
Civil Twilight 4:34 AM MDT 9:15 PM MDT
Nautical Twilight 3:45 AM MDT 10:04 PM MDT
Astronomical Twilight 2:42 AM MDT 11:06 PM MDT
Moon 6:50 PM MDT 3:27 AM MDT
Length of Visible Light 16h 41m
Length of Day
15h 27m
Tomorrow will be 1m 25s shorter.
Waxing Gibbous, 95% of the Moon is Illuminated
Today
Waxing Gibbous
Jul 12
Full
Jul 18
Last Quarter
Jul 26
New
Aug 3
First Quarter

Today's Extremes

State Highs State Lows

Community

WunderPhotos

Upload Photos

1,732,152 photos uploaded!

Nearby

Snow Depth

Station Depth Elevation
North Rapid Creek 0 in 6130 ft
Blind Park 1 in 6890 ft

Earthquake Activity

City Distance Mag. Time & Date
No recent earthquake activity has been reported nearby.
Minimum magnitude displayed is 2.5.

Coastal Water Temperatures

Place Temperature
No Stations Reporting

Nearby Weather Stations

Station Location Temp. Dew Point Humidity Wind Precip. Elev Updated Type
HADS SHADEHILL RESERVOIR NEAR SHADEHI SD, Lemmon, SD 62 °F - - North  at  - 0.00 in / hr 2250 ft 8:15 AM MDT MADIS

Show More Stations Show Fewer Stations